Aberdeen, New Jersey
Current Conditions -  °F | °C
As of 3:35 AM on Saturday 01 Nov 2014 (Local Time) from KLDJ Reporting Station
Overcast Overcast  
Wind Chill: 51°   Ceiling: 2500
Heat Index: 51°   Visibility: 10mi
Dew Point: 45°   Wind: 10mph
Humidity: 81%   Direction: 30°NNE
Pressure: 29.84"   Gusts: 18mph
Location:  40.4118°N, 74.2499°W
Report Text: KLDJ 010735Z AUTO 03009G16KT 10SM OVC025 11/07 A2984 RMK AO2 T01050073
Loading
Personal Weather Stations






























Interactive Weather Map
Tropical Storm Tracking
New forecast layout! Learn more

10-Day Weather Forecast

Advertisements
Track Severe Weather on mobile